ETH706Z HAAB-EDDF
Flight info
| Callsign | ETH706Z |
|---|---|
| Flight time | N/A |
| Altitude | 36000 |
| Route | LABLA5A LABLA DCT AMUDO T124 ALRAP/N0501F350 DCT KSL/N0499F360 DCT TOMRU P751 KUNKI/N0488F380 T55 TANSA UL613 KOR DCT DIMIS DCT TRN DCT PERAN DCT GILUK DCT NOVLO DCT ZAG DCT PETOV DCT GOLVA DCT SIMBA DCT NIMDI DCT ERNAS T161 DEBHI DEBHI1C |
| Aircraft | A359/H-SDE2E3GHIJ3J4J5LM1ORWXY/LB1D1 |
Departure
| Time | N/A |
|---|---|
| Airport | Addis Ababa Bole International Airport (HAAB) |
Arrival
| Time | 2026-05-01 14:55 |
|---|---|
| Airport | Frankfurt Main Airport (EDDF) |
| Time | Latitude | Longitude | Altitude | Speed | Heading |
|---|---|---|---|---|---|
| 2026-05-01 08:58 | 15.28039 | 36.32926 | 35875 ft | 507 kts | 1° |
| 2026-05-01 08:59 | 15.35085 | 36.33366 | 35876 ft | 507 kts | 1° |
| 2026-05-01 08:59 | 15.42114 | 36.33804 | 35878 ft | 506 kts | 1° |
| 2026-05-01 09:00 | 15.49146 | 36.33894 | 35883 ft | 505 kts | 357° |
| 2026-05-01 09:00 | 15.56166 | 36.33773 | 35883 ft | 505 kts | 357° |
| 2026-05-01 09:01 | 15.63182 | 36.33700 | 35884 ft | 505 kts | 358° |
| 2026-05-01 09:01 | 15.70179 | 36.33680 | 35883 ft | 504 kts | 358° |
| 2026-05-01 09:02 | 15.77187 | 36.33674 | 35884 ft | 504 kts | 358° |
| 2026-05-01 09:02 | 15.84203 | 36.33668 | 35886 ft | 504 kts | 358° |
| 2026-05-01 09:03 | 15.91248 | 36.33661 | 35887 ft | 504 kts | 358° |
| 2026-05-01 09:03 | 15.98228 | 36.33653 | 35891 ft | 504 kts | 358° |
| 2026-05-01 09:04 | 16.05231 | 36.33644 | 35889 ft | 503 kts | 358° |
| 2026-05-01 09:04 | 16.12244 | 36.33635 | 35889 ft | 503 kts | 358° |
| 2026-05-01 09:05 | 16.19267 | 36.33627 | 35892 ft | 503 kts | 357° |
| 2026-05-01 09:05 | 16.26261 | 36.33618 | 35889 ft | 502 kts | 357° |
| 2026-05-01 09:06 | 16.33202 | 36.33610 | 35889 ft | 502 kts | 357° |
| 2026-05-01 09:06 | 16.40185 | 36.33601 | 35889 ft | 502 kts | 357° |
| 2026-05-01 09:07 | 16.47167 | 36.33593 | 35895 ft | 502 kts | 357° |
| 2026-05-01 09:07 | 16.54161 | 36.33584 | 35889 ft | 501 kts | 357° |
| 2026-05-01 09:08 | 16.61147 | 36.33575 | 35889 ft | 501 kts | 357° |
| 2026-05-01 09:08 | 16.68108 | 36.33567 | 35889 ft | 501 kts | 357° |
| 2026-05-01 09:09 | 16.75055 | 36.33558 | 35893 ft | 501 kts | 356° |
| 2026-05-01 09:09 | 16.82025 | 36.33550 | 35889 ft | 501 kts | 356° |
| 2026-05-01 09:10 | 16.88986 | 36.33541 | 35889 ft | 500 kts | 356° |
| 2026-05-01 09:10 | 16.95952 | 36.33533 | 35889 ft | 500 kts | 356° |
| 2026-05-01 09:11 | 17.02920 | 36.33524 | 35901 ft | 500 kts | 356° |
| 2026-05-01 09:11 | 17.09887 | 36.33515 | 35891 ft | 500 kts | 356° |
| 2026-05-01 09:12 | 17.16857 | 36.33506 | 35892 ft | 500 kts | 356° |
| 2026-05-01 09:12 | 17.23829 | 36.33498 | 35891 ft | 500 kts | 356° |
| 2026-05-01 09:13 | 17.30797 | 36.33490 | 35904 ft | 501 kts | 356° |
| 2026-05-01 09:13 | 17.37748 | 36.33482 | 35898 ft | 500 kts | 356° |
| 2026-05-01 09:14 | 17.44677 | 36.33473 | 35896 ft | 500 kts | 356° |
| 2026-05-01 09:14 | 17.51672 | 36.33463 | 35900 ft | 500 kts | 356° |
| 2026-05-01 09:15 | 17.58600 | 36.33455 | 35900 ft | 500 kts | 356° |
| 2026-05-01 09:15 | 17.65562 | 36.33446 | 35900 ft | 500 kts | 356° |
| 2026-05-01 09:16 | 17.72542 | 36.33437 | 35897 ft | 500 kts | 356° |
| 2026-05-01 09:17 | 17.82976 | 36.33425 | 35899 ft | 500 kts | 356° |
| 2026-05-01 09:17 | 17.93383 | 36.33412 | 35900 ft | 501 kts | 355° |
| 2026-05-01 09:18 | 18.03830 | 36.33399 | 35903 ft | 501 kts | 355° |
| 2026-05-01 09:19 | 18.14274 | 36.33386 | 35908 ft | 501 kts | 355° |
| 2026-05-01 09:20 | 18.24739 | 36.33372 | 35904 ft | 502 kts | 355° |
| 2026-05-01 09:21 | 18.38715 | 36.33355 | 35900 ft | 502 kts | 355° |
| 2026-05-01 09:21 | 18.49203 | 36.33342 | 35907 ft | 502 kts | 355° |
| 2026-05-01 09:22 | 18.63179 | 36.33324 | 35913 ft | 502 kts | 355° |
| 2026-05-01 09:23 | 18.73631 | 36.33312 | 35924 ft | 502 kts | 355° |
| 2026-05-01 09:24 | 18.84142 | 36.33298 | 35925 ft | 502 kts | 355° |
| 2026-05-01 09:25 | 18.98068 | 36.33280 | 35934 ft | 502 kts | 355° |
| 2026-05-01 09:26 | 19.08518 | 36.33269 | 35937 ft | 501 kts | 355° |
| 2026-05-01 09:26 | 19.18977 | 36.33254 | 35935 ft | 501 kts | 355° |
| 2026-05-01 09:27 | 19.29438 | 36.33241 | 35937 ft | 501 kts | 354° |
| 2026-05-01 09:28 | 19.36401 | 36.33232 | 35934 ft | 500 kts | 354° |
| 2026-05-01 09:28 | 19.43371 | 36.33223 | 35936 ft | 501 kts | 354° |
| 2026-05-01 09:29 | 19.53829 | 36.33210 | 35942 ft | 501 kts | 354° |
| 2026-05-01 09:30 | 19.64227 | 36.33197 | 35936 ft | 500 kts | 354° |
| 2026-05-01 09:30 | 19.74660 | 36.33183 | 35933 ft | 500 kts | 354° |
| 2026-05-01 09:31 | 19.81615 | 36.33174 | 35937 ft | 500 kts | 354° |
| 2026-05-01 09:32 | 19.92035 | 36.33161 | 35927 ft | 499 kts | 354° |
| 2026-05-01 09:32 | 20.02445 | 36.33147 | 35929 ft | 499 kts | 354° |
| 2026-05-01 09:33 | 20.09388 | 36.33138 | 35936 ft | 499 kts | 354° |
| 2026-05-01 09:34 | 20.18618 | 36.33127 | 35936 ft | 498 kts | 354° |
| 2026-05-01 09:34 | 20.29003 | 36.33114 | 35933 ft | 498 kts | 354° |
| 2026-05-01 09:35 | 20.39414 | 36.33100 | 35935 ft | 498 kts | 354° |
| 2026-05-01 09:36 | 20.46331 | 36.33091 | 35933 ft | 498 kts | 354° |
| 2026-05-01 09:36 | 20.53261 | 36.33082 | 35933 ft | 498 kts | 354° |
| 2026-05-01 09:37 | 20.60154 | 36.33074 | 35952 ft | 498 kts | 354° |
| 2026-05-01 09:37 | 20.70482 | 36.32772 | 35936 ft | 489 kts | 345° |
| 2026-05-01 09:38 | 20.76843 | 36.30654 | 35926 ft | 472 kts | 327° |
| 2026-05-01 09:38 | 20.79670 | 36.28932 | 35925 ft | 469 kts | 323° |
| 2026-05-01 09:39 | 20.87912 | 36.23273 | 35928 ft | 468 kts | 321° |
| 2026-05-01 09:39 | 20.93340 | 36.19473 | 35930 ft | 466 kts | 321° |
| 2026-05-01 09:40 | 21.01482 | 36.13817 | 35930 ft | 464 kts | 322° |
| 2026-05-01 09:41 | 21.06895 | 36.10066 | 35929 ft | 464 kts | 321° |
| 2026-05-01 09:41 | 21.15027 | 36.04426 | 35930 ft | 464 kts | 321° |
| 2026-05-01 09:42 | 21.20442 | 36.00664 | 35928 ft | 464 kts | 322° |
| 2026-05-01 09:43 | 21.31240 | 35.93155 | 35926 ft | 461 kts | 321° |
| 2026-05-01 09:43 | 21.36593 | 35.89426 | 35929 ft | 461 kts | 321° |
| 2026-05-01 09:44 | 21.44655 | 35.83804 | 35924 ft | 461 kts | 321° |
| 2026-05-01 09:45 | 21.50036 | 35.80048 | 35928 ft | 461 kts | 321° |
| 2026-05-01 09:46 | 21.68567 | 35.67089 | 35928 ft | 458 kts | 321° |
| 2026-05-01 09:47 | 21.73881 | 35.63363 | 35927 ft | 458 kts | 321° |
| 2026-05-01 09:47 | 21.79223 | 35.59616 | 35930 ft | 458 kts | 321° |
| 2026-05-01 09:48 | 21.84559 | 35.55870 | 35927 ft | 459 kts | 321° |
| 2026-05-01 09:48 | 21.89904 | 35.52115 | 35946 ft | 458 kts | 320° |
| 2026-05-01 09:49 | 21.95233 | 35.48365 | 35943 ft | 457 kts | 320° |
| 2026-05-01 09:49 | 22.00552 | 35.44622 | 35945 ft | 456 kts | 320° |
| 2026-05-01 09:50 | 22.05883 | 35.40910 | 35947 ft | 456 kts | 321° |
| 2026-05-01 09:50 | 22.11232 | 35.37198 | 35940 ft | 456 kts | 321° |
| 2026-05-01 09:51 | 22.16536 | 35.33512 | 35943 ft | 456 kts | 321° |
| 2026-05-01 09:51 | 22.21855 | 35.29808 | 35954 ft | 456 kts | 320° |
| 2026-05-01 09:52 | 22.27181 | 35.26095 | 35947 ft | 455 kts | 320° |
| 2026-05-01 09:52 | 22.32494 | 35.22387 | 35950 ft | 454 kts | 320° |
| 2026-05-01 09:53 | 22.37793 | 35.18686 | 35950 ft | 454 kts | 320° |
| 2026-05-01 09:53 | 22.43099 | 35.14976 | 35948 ft | 454 kts | 320° |
| 2026-05-01 09:54 | 22.48392 | 35.11271 | 35948 ft | 453 kts | 320° |
| 2026-05-01 09:54 | 22.53698 | 35.07555 | 35939 ft | 453 kts | 320° |
| 2026-05-01 09:55 | 22.58991 | 35.03844 | 35944 ft | 453 kts | 320° |
| 2026-05-01 09:55 | 22.64286 | 35.00129 | 35944 ft | 453 kts | 320° |
| 2026-05-01 09:56 | 22.69576 | 34.96414 | 35936 ft | 453 kts | 320° |
| 2026-05-01 09:56 | 22.74863 | 34.92698 | 35940 ft | 452 kts | 320° |
| 2026-05-01 09:57 | 22.80095 | 34.89015 | 35939 ft | 452 kts | 320° |
| 2026-05-01 09:57 | 22.85372 | 34.85298 | 35956 ft | 452 kts | 320° |
| 2026-05-01 09:58 | 22.90640 | 34.81583 | 35938 ft | 451 kts | 320° |
| 2026-05-01 09:58 | 22.95900 | 34.77871 | 35938 ft | 451 kts | 320° |
| 2026-05-01 09:59 | 23.01152 | 34.74162 | 35938 ft | 451 kts | 320° |
| 2026-05-01 09:59 | 23.06388 | 34.70460 | 35943 ft | 450 kts | 320° |
| 2026-05-01 10:00 | 23.11620 | 34.66760 | 35946 ft | 448 kts | 320° |
| 2026-05-01 10:00 | 23.16811 | 34.63082 | 35976 ft | 448 kts | 320° |
| 2026-05-01 10:01 | 23.22036 | 34.59375 | 35949 ft | 448 kts | 320° |
| 2026-05-01 10:01 | 23.27261 | 34.55668 | 35949 ft | 448 kts | 320° |
| 2026-05-01 10:02 | 23.32488 | 34.51955 | 35948 ft | 449 kts | 320° |
| 2026-05-01 10:02 | 23.37722 | 34.48233 | 35947 ft | 448 kts | 320° |
| 2026-05-01 10:03 | 23.42912 | 34.44540 | 35936 ft | 448 kts | 320° |
| 2026-05-01 10:03 | 23.48121 | 34.40830 | 35937 ft | 447 kts | 320° |
| 2026-05-01 10:04 | 23.53317 | 34.37123 | 35946 ft | 447 kts | 320° |
| 2026-05-01 10:04 | 23.58522 | 34.33407 | 35948 ft | 447 kts | 320° |
| 2026-05-01 10:05 | 23.63723 | 34.29690 | 35950 ft | 447 kts | 320° |
| 2026-05-01 10:05 | 23.68929 | 34.25968 | 35934 ft | 447 kts | 320° |
| 2026-05-01 10:06 | 23.74119 | 34.22253 | 35952 ft | 447 kts | 320° |
| 2026-05-01 10:06 | 23.79316 | 34.18529 | 35959 ft | 446 kts | 320° |
| 2026-05-01 10:07 | 23.84491 | 34.14825 | 35944 ft | 444 kts | 320° |
| 2026-05-01 10:07 | 23.89680 | 34.11135 | 35942 ft | 444 kts | 320° |
| 2026-05-01 10:08 | 23.97449 | 34.05607 | 35945 ft | 444 kts | 320° |
| 2026-05-01 10:09 | 24.02633 | 34.01910 | 35947 ft | 444 kts | 320° |
| 2026-05-01 10:09 | 24.07800 | 33.98221 | 35948 ft | 444 kts | 320° |
| 2026-05-01 10:10 | 24.12975 | 33.94522 | 35953 ft | 444 kts | 320° |
| 2026-05-01 10:10 | 24.20717 | 33.88984 | 35947 ft | 442 kts | 320° |
| 2026-05-01 10:11 | 24.25839 | 33.85314 | 35947 ft | 442 kts | 320° |
| 2026-05-01 10:11 | 24.30981 | 33.81625 | 35946 ft | 442 kts | 320° |
| 2026-05-01 10:12 | 24.35263 | 33.78552 | 35945 ft | 442 kts | 320° |
| 2026-05-01 10:13 | 24.43843 | 33.72387 | 35945 ft | 442 kts | 320° |
| 2026-05-01 10:13 | 24.48988 | 33.68683 | 35954 ft | 442 kts | 320° |
| 2026-05-01 10:14 | 24.56684 | 33.63138 | 35946 ft | 441 kts | 320° |
| 2026-05-01 10:14 | 24.61774 | 33.59466 | 35947 ft | 440 kts | 320° |
| 2026-05-01 10:15 | 24.66888 | 33.55772 | 35944 ft | 440 kts | 320° |
| 2026-05-01 10:15 | 24.72007 | 33.52071 | 35943 ft | 440 kts | 320° |
| 2026-05-01 10:16 | 24.77132 | 33.48364 | 35947 ft | 440 kts | 320° |
| 2026-05-01 10:17 | 24.84814 | 33.42795 | 35925 ft | 442 kts | 320° |
| 2026-05-01 10:17 | 24.92523 | 33.37203 | 35944 ft | 442 kts | 320° |
| 2026-05-01 10:18 | 25.00225 | 33.31606 | 35938 ft | 442 kts | 320° |
| 2026-05-01 10:19 | 25.05368 | 33.27864 | 35936 ft | 442 kts | 320° |
| 2026-05-01 10:19 | 25.10500 | 33.24126 | 35939 ft | 442 kts | 320° |
| 2026-05-01 10:20 | 25.18194 | 33.18515 | 35944 ft | 444 kts | 320° |
| 2026-05-01 10:20 | 25.23351 | 33.14749 | 35945 ft | 444 kts | 320° |
| 2026-05-01 10:21 | 25.31070 | 33.09110 | 35934 ft | 443 kts | 320° |
| 2026-05-01 10:22 | 25.38752 | 33.03485 | 35939 ft | 443 kts | 320° |
| 2026-05-01 10:23 | 25.46451 | 32.97839 | 35938 ft | 443 kts | 320° |
| 2026-05-01 10:23 | 25.54179 | 32.92163 | 35936 ft | 444 kts | 320° |
| 2026-05-01 10:24 | 25.64472 | 32.84592 | 35933 ft | 442 kts | 320° |
| 2026-05-01 10:25 | 25.74548 | 32.76861 | 35959 ft | 435 kts | 313° |
| 2026-05-01 10:26 | 25.78628 | 32.72014 | 35928 ft | 432 kts | 306° |
| 2026-05-01 10:27 | 25.86314 | 32.61765 | 35951 ft | 432 kts | 305° |
| 2026-05-01 10:28 | 25.91410 | 32.54943 | 35928 ft | 430 kts | 306° |
| 2026-05-01 10:28 | 25.97155 | 32.47262 | 35927 ft | 430 kts | 306° |
| 2026-05-01 10:29 | 26.02890 | 32.39585 | 35928 ft | 430 kts | 306° |
| 2026-05-01 10:30 | 26.10488 | 32.29396 | 35923 ft | 428 kts | 306° |
| 2026-05-01 10:31 | 26.18103 | 32.19157 | 35924 ft | 431 kts | 306° |
| 2026-05-01 10:32 | 26.23836 | 32.11434 | 35927 ft | 431 kts | 306° |
| 2026-05-01 10:33 | 26.31474 | 32.01127 | 35926 ft | 429 kts | 306° |
| 2026-05-01 10:34 | 26.37134 | 31.93473 | 35927 ft | 429 kts | 306° |
| 2026-05-01 10:34 | 26.40927 | 31.88336 | 35927 ft | 429 kts | 306° |
| 2026-05-01 10:35 | 26.46615 | 31.80622 | 35936 ft | 429 kts | 306° |
| 2026-05-01 10:35 | 26.50400 | 31.75481 | 35935 ft | 428 kts | 306° |
| 2026-05-01 10:36 | 26.56069 | 31.67770 | 35944 ft | 429 kts | 306° |
| 2026-05-01 10:37 | 26.59863 | 31.62603 | 35959 ft | 429 kts | 306° |
| 2026-05-01 10:37 | 26.65514 | 31.54895 | 35968 ft | 429 kts | 306° |
| 2026-05-01 10:38 | 26.69297 | 31.49728 | 35987 ft | 429 kts | 306° |
| 2026-05-01 10:38 | 26.73068 | 31.44573 | 35988 ft | 427 kts | 306° |
| 2026-05-01 10:39 | 26.76828 | 31.39424 | 36002 ft | 427 kts | 306° |
| 2026-05-01 10:39 | 26.80583 | 31.34277 | 36001 ft | 427 kts | 306° |
| 2026-05-01 10:40 | 26.84337 | 31.29127 | 36027 ft | 427 kts | 306° |
| 2026-05-01 10:40 | 26.88082 | 31.23982 | 36035 ft | 427 kts | 306° |
| 2026-05-01 10:41 | 26.91827 | 31.18830 | 36037 ft | 425 kts | 306° |
| 2026-05-01 10:42 | 26.97398 | 31.11154 | 36047 ft | 424 kts | 306° |
| 2026-05-01 10:42 | 27.01133 | 31.06013 | 36047 ft | 425 kts | 307° |
| 2026-05-01 10:43 | 27.05459 | 31.01449 | 36050 ft | 431 kts | 318° |
| 2026-05-01 10:43 | 27.10311 | 30.97477 | 36047 ft | 432 kts | 320° |
| 2026-05-01 10:44 | 27.15223 | 30.93596 | 36043 ft | 430 kts | 320° |
| 2026-05-01 10:44 | 27.20086 | 30.89754 | 36049 ft | 426 kts | 320° |
| 2026-05-01 10:45 | 27.24923 | 30.85904 | 36073 ft | 425 kts | 320° |
| 2026-05-01 10:45 | 27.29751 | 30.82047 | 36042 ft | 427 kts | 320° |
| 2026-05-01 10:46 | 27.34595 | 30.78174 | 36041 ft | 427 kts | 320° |
| 2026-05-01 10:46 | 27.39438 | 30.74300 | 36042 ft | 427 kts | 320° |
| 2026-05-01 10:47 | 27.44296 | 30.70409 | 36037 ft | 427 kts | 320° |
| 2026-05-01 10:47 | 27.49096 | 30.66561 | 36037 ft | 427 kts | 320° |
| 2026-05-01 10:48 | 27.53936 | 30.62677 | 36038 ft | 427 kts | 320° |
| 2026-05-01 10:48 | 27.58780 | 30.58784 | 36045 ft | 427 kts | 320° |
| 2026-05-01 10:49 | 27.63626 | 30.54885 | 36036 ft | 428 kts | 320° |
| 2026-05-01 10:49 | 27.68483 | 30.50974 | 36032 ft | 428 kts | 320° |
| 2026-05-01 10:50 | 27.73326 | 30.47070 | 36030 ft | 428 kts | 320° |
| 2026-05-01 10:50 | 27.78179 | 30.43153 | 36027 ft | 428 kts | 320° |
| 2026-05-01 10:51 | 27.83020 | 30.39242 | 36025 ft | 428 kts | 320° |
| 2026-05-01 10:51 | 27.87855 | 30.35331 | 36022 ft | 427 kts | 320° |
| 2026-05-01 10:52 | 27.92650 | 30.31448 | 36029 ft | 426 kts | 320° |
| 2026-05-01 10:52 | 27.97474 | 30.27536 | 36032 ft | 427 kts | 320° |
| 2026-05-01 10:53 | 28.02303 | 30.23617 | 36012 ft | 427 kts | 320° |
| 2026-05-01 10:53 | 28.07130 | 30.19695 | 36011 ft | 427 kts | 320° |
| 2026-05-01 10:54 | 28.11957 | 30.15769 | 36010 ft | 427 kts | 320° |
| 2026-05-01 10:54 | 28.16786 | 30.11835 | 36021 ft | 427 kts | 320° |
| 2026-05-01 10:55 | 28.21607 | 30.07905 | 36053 ft | 425 kts | 320° |
| 2026-05-01 10:55 | 28.26375 | 30.04013 | 36010 ft | 425 kts | 320° |
| 2026-05-01 10:56 | 28.31175 | 30.00091 | 36007 ft | 426 kts | 320° |
| 2026-05-01 10:56 | 28.35978 | 29.96161 | 36007 ft | 426 kts | 320° |
| 2026-05-01 10:57 | 28.40813 | 29.92201 | 36000 ft | 425 kts | 320° |
| 2026-05-01 10:57 | 28.45580 | 29.88293 | 35999 ft | 425 kts | 320° |
| 2026-05-01 10:58 | 28.50384 | 29.84349 | 35998 ft | 425 kts | 320° |
| 2026-05-01 10:58 | 28.55183 | 29.80405 | 35998 ft | 425 kts | 320° |
| 2026-05-01 10:59 | 28.59960 | 29.76475 | 35990 ft | 424 kts | 320° |
| 2026-05-01 10:59 | 28.64736 | 29.72541 | 35990 ft | 424 kts | 320° |
| 2026-05-01 11:00 | 28.69512 | 29.68602 | 35989 ft | 424 kts | 320° |
| 2026-05-01 11:00 | 28.74269 | 29.64675 | 35985 ft | 423 kts | 320° |
| 2026-05-01 11:01 | 28.79037 | 29.60734 | 35980 ft | 423 kts | 320° |
| 2026-05-01 11:01 | 28.83806 | 29.56787 | 35987 ft | 423 kts | 320° |
| 2026-05-01 11:02 | 28.88578 | 29.52833 | 35983 ft | 424 kts | 320° |
| 2026-05-01 11:02 | 28.93345 | 29.48880 | 35976 ft | 423 kts | 320° |
| 2026-05-01 11:03 | 28.98097 | 29.44934 | 35972 ft | 422 kts | 320° |
| 2026-05-01 11:03 | 29.02815 | 29.41011 | 35971 ft | 422 kts | 320° |
| 2026-05-01 11:04 | 29.07566 | 29.37057 | 35971 ft | 422 kts | 320° |
| 2026-05-01 11:04 | 29.12390 | 29.33213 | 35968 ft | 425 kts | 325° |
| 2026-05-01 11:05 | 29.17678 | 29.30105 | 35981 ft | 428 kts | 328° |
| 2026-05-01 11:05 | 29.23060 | 29.27136 | 35957 ft | 430 kts | 329° |
| 2026-05-01 11:06 | 29.28467 | 29.24177 | 35969 ft | 430 kts | 329° |
| 2026-05-01 11:06 | 29.33849 | 29.21220 | 35972 ft | 428 kts | 328° |
| 2026-05-01 11:07 | 29.41883 | 29.16784 | 35974 ft | 427 kts | 328° |
| 2026-05-01 11:07 | 29.47202 | 29.13840 | 35976 ft | 427 kts | 328° |
| 2026-05-01 11:08 | 29.52573 | 29.10864 | 35967 ft | 430 kts | 328° |
| 2026-05-01 11:09 | 29.60659 | 29.06379 | 35965 ft | 430 kts | 328° |
| 2026-05-01 11:09 | 29.66042 | 29.03391 | 35967 ft | 430 kts | 328° |
| 2026-05-01 11:10 | 29.74137 | 28.98888 | 35966 ft | 430 kts | 328° |
| 2026-05-01 11:10 | 29.79524 | 28.95887 | 35967 ft | 431 kts | 328° |
| 2026-05-01 11:11 | 29.84920 | 28.92877 | 35968 ft | 430 kts | 328° |
| 2026-05-01 11:11 | 29.90308 | 28.89869 | 35968 ft | 430 kts | 328° |
| 2026-05-01 11:12 | 29.95653 | 28.86880 | 35971 ft | 430 kts | 328° |
| 2026-05-01 11:12 | 30.00150 | 28.84363 | 35974 ft | 430 kts | 328° |
| 2026-05-01 11:13 | 30.06415 | 28.80852 | 35974 ft | 429 kts | 328° |
| 2026-05-01 11:13 | 30.11778 | 28.77842 | 35980 ft | 429 kts | 328° |
| 2026-05-01 11:14 | 30.16261 | 28.75324 | 35976 ft | 429 kts | 328° |
| 2026-05-01 11:14 | 30.21632 | 28.72303 | 35977 ft | 429 kts | 328° |
| 2026-05-01 11:15 | 30.27000 | 28.69281 | 35980 ft | 429 kts | 328° |
| 2026-05-01 11:15 | 30.32367 | 28.66254 | 36001 ft | 429 kts | 328° |
| 2026-05-01 11:16 | 30.37739 | 28.63222 | 35979 ft | 429 kts | 328° |
| 2026-05-01 11:16 | 30.43108 | 28.60188 | 35980 ft | 429 kts | 328° |
| 2026-05-01 11:17 | 30.48459 | 28.57160 | 35982 ft | 429 kts | 328° |
| 2026-05-01 11:17 | 30.53826 | 28.54119 | 35979 ft | 429 kts | 328° |
| 2026-05-01 11:18 | 30.59199 | 28.51071 | 35986 ft | 429 kts | 328° |
| 2026-05-01 11:18 | 30.64559 | 28.48027 | 35984 ft | 429 kts | 328° |
| 2026-05-01 11:19 | 30.69886 | 28.44997 | 35991 ft | 430 kts | 328° |
| 2026-05-01 11:19 | 30.75265 | 28.41934 | 35995 ft | 430 kts | 328° |
| 2026-05-01 11:20 | 30.80637 | 28.38872 | 35996 ft | 430 kts | 328° |
| 2026-05-01 11:20 | 30.86005 | 28.35809 | 35996 ft | 430 kts | 328° |
| 2026-05-01 11:21 | 30.91367 | 28.32745 | 36004 ft | 429 kts | 328° |
| 2026-05-01 11:21 | 30.96737 | 28.29671 | 36000 ft | 430 kts | 328° |
| 2026-05-01 11:22 | 31.02110 | 28.26592 | 35999 ft | 430 kts | 328° |
| 2026-05-01 11:22 | 31.07475 | 28.23514 | 35999 ft | 430 kts | 328° |
| 2026-05-01 11:23 | 31.12841 | 28.20432 | 35996 ft | 430 kts | 328° |
| 2026-05-01 11:23 | 31.18172 | 28.17366 | 36003 ft | 430 kts | 328° |
| 2026-05-01 11:24 | 31.23568 | 28.14259 | 36001 ft | 431 kts | 328° |
| 2026-05-01 11:25 | 31.31610 | 28.09619 | 36012 ft | 431 kts | 328° |
| 2026-05-01 11:25 | 31.39675 | 28.04960 | 36003 ft | 431 kts | 328° |
| 2026-05-01 11:26 | 31.47726 | 28.00299 | 36022 ft | 430 kts | 328° |
| 2026-05-01 11:27 | 31.53275 | 27.97555 | 36002 ft | 435 kts | 332° |
| 2026-05-01 11:27 | 31.58915 | 27.94977 | 36005 ft | 435 kts | 332° |
| 2026-05-01 11:28 | 31.64572 | 27.92417 | 36003 ft | 435 kts | 332° |
| 2026-05-01 11:28 | 31.70218 | 27.89855 | 36002 ft | 435 kts | 332° |
| 2026-05-01 11:29 | 31.78695 | 27.85990 | 36009 ft | 436 kts | 332° |
| 2026-05-01 11:30 | 31.87155 | 27.82123 | 36003 ft | 437 kts | 332° |
| 2026-05-01 11:30 | 31.92821 | 27.79534 | 36000 ft | 437 kts | 332° |
| 2026-05-01 11:31 | 31.98488 | 27.76930 | 36003 ft | 437 kts | 332° |
| 2026-05-01 11:31 | 32.04157 | 27.74319 | 36012 ft | 437 kts | 332° |
| 2026-05-01 11:32 | 32.09821 | 27.71709 | 36005 ft | 438 kts | 332° |
| 2026-05-01 11:32 | 32.15471 | 27.69103 | 35997 ft | 438 kts | 332° |
| 2026-05-01 11:33 | 32.21150 | 27.66482 | 35995 ft | 438 kts | 332° |
| 2026-05-01 11:33 | 32.26825 | 27.63858 | 35994 ft | 438 kts | 332° |
| 2026-05-01 11:34 | 32.32500 | 27.61233 | 36000 ft | 438 kts | 332° |
| 2026-05-01 11:34 | 32.38189 | 27.58595 | 35999 ft | 440 kts | 332° |
| 2026-05-01 11:35 | 32.43890 | 27.55939 | 35998 ft | 440 kts | 332° |
| 2026-05-01 11:35 | 32.49587 | 27.53284 | 35999 ft | 440 kts | 332° |
| 2026-05-01 11:36 | 32.55276 | 27.50631 | 35996 ft | 440 kts | 332° |
| 2026-05-01 11:36 | 32.60979 | 27.47968 | 35997 ft | 440 kts | 332° |
| 2026-05-01 11:37 | 32.66680 | 27.45303 | 35999 ft | 440 kts | 332° |
| 2026-05-01 11:37 | 32.72372 | 27.42642 | 35999 ft | 439 kts | 332° |
| 2026-05-01 11:38 | 32.78027 | 27.39988 | 35996 ft | 439 kts | 331° |
| 2026-05-01 11:38 | 32.83714 | 27.37301 | 35996 ft | 439 kts | 331° |
| 2026-05-01 11:39 | 32.89402 | 27.34613 | 35995 ft | 439 kts | 331° |
| 2026-05-01 11:39 | 32.95077 | 27.31931 | 35996 ft | 439 kts | 331° |
| 2026-05-01 11:40 | 33.00756 | 27.29244 | 35997 ft | 439 kts | 331° |
| 2026-05-01 11:40 | 33.06405 | 27.26568 | 35996 ft | 439 kts | 331° |
| 2026-05-01 11:41 | 33.12083 | 27.23874 | 35999 ft | 439 kts | 331° |
| 2026-05-01 11:41 | 33.17760 | 27.21176 | 35993 ft | 439 kts | 331° |
| 2026-05-01 11:42 | 33.23440 | 27.18474 | 35994 ft | 439 kts | 331° |
| 2026-05-01 11:42 | 33.29116 | 27.15770 | 35993 ft | 439 kts | 331° |
| 2026-05-01 11:43 | 33.34780 | 27.13068 | 35991 ft | 438 kts | 331° |
| 2026-05-01 11:43 | 33.40449 | 27.10360 | 35996 ft | 437 kts | 331° |
| 2026-05-01 11:44 | 33.48889 | 27.06320 | 35993 ft | 438 kts | 331° |
| 2026-05-01 11:44 | 33.54547 | 27.03607 | 35993 ft | 438 kts | 331° |
| 2026-05-01 11:45 | 33.60200 | 27.00893 | 35996 ft | 438 kts | 331° |
| 2026-05-01 11:45 | 33.65864 | 26.98169 | 36001 ft | 438 kts | 331° |
| 2026-05-01 11:46 | 33.71516 | 26.95448 | 35993 ft | 438 kts | 331° |
| 2026-05-01 11:46 | 33.77168 | 26.92722 | 35999 ft | 438 kts | 331° |
| 2026-05-01 11:47 | 33.82831 | 26.89988 | 35996 ft | 438 kts | 331° |
| 2026-05-01 11:47 | 33.88491 | 26.87251 | 35997 ft | 438 kts | 331° |
| 2026-05-01 11:48 | 33.94143 | 26.84515 | 36010 ft | 437 kts | 330° |
| 2026-05-01 11:48 | 33.99667 | 26.81555 | 36008 ft | 430 kts | 323° |
| 2026-05-01 11:49 | 34.04523 | 26.77507 | 35993 ft | 425 kts | 317° |
| 2026-05-01 11:49 | 34.09217 | 26.73181 | 35990 ft | 424 kts | 316° |
| 2026-05-01 11:50 | 34.13882 | 26.68817 | 36009 ft | 424 kts | 316° |
| 2026-05-01 11:50 | 34.18548 | 26.64457 | 36010 ft | 424 kts | 316° |
| 2026-05-01 11:51 | 34.23219 | 26.60102 | 36001 ft | 424 kts | 316° |
| 2026-05-01 11:51 | 34.27895 | 26.55739 | 36007 ft | 425 kts | 316° |
| 2026-05-01 11:52 | 34.32564 | 26.51378 | 36001 ft | 423 kts | 316° |
| 2026-05-01 11:52 | 34.37223 | 26.47019 | 36003 ft | 423 kts | 316° |
| 2026-05-01 11:53 | 34.41854 | 26.42678 | 35999 ft | 423 kts | 316° |
| 2026-05-01 11:53 | 34.46503 | 26.38314 | 36001 ft | 423 kts | 316° |
| 2026-05-01 11:54 | 34.51159 | 26.33938 | 36009 ft | 423 kts | 316° |
| 2026-05-01 11:54 | 34.55798 | 26.29571 | 35999 ft | 423 kts | 316° |
| 2026-05-01 11:55 | 34.60441 | 26.25195 | 35994 ft | 422 kts | 316° |
| 2026-05-01 11:55 | 34.65084 | 26.20812 | 35999 ft | 422 kts | 316° |
| 2026-05-01 11:56 | 34.69715 | 26.16434 | 36000 ft | 421 kts | 316° |
| 2026-05-01 11:56 | 34.74336 | 26.12058 | 36002 ft | 421 kts | 316° |
| 2026-05-01 11:57 | 34.78190 | 26.08404 | 36002 ft | 421 kts | 316° |
| 2026-05-01 11:57 | 34.83563 | 26.03303 | 36007 ft | 422 kts | 316° |
| 2026-05-01 11:58 | 34.88188 | 25.98905 | 36009 ft | 422 kts | 316° |
| 2026-05-01 11:59 | 34.95117 | 25.92305 | 36014 ft | 422 kts | 315° |
| 2026-05-01 11:59 | 34.98958 | 25.88639 | 36020 ft | 421 kts | 315° |
| 2026-05-01 12:00 | 35.05881 | 25.82021 | 36037 ft | 421 kts | 315° |
| 2026-05-01 12:01 | 35.12799 | 25.75396 | 36031 ft | 421 kts | 315° |
| 2026-05-01 12:01 | 35.17397 | 25.70955 | 36037 ft | 421 kts | 315° |
| 2026-05-01 12:02 | 35.21985 | 25.66514 | 36036 ft | 421 kts | 315° |
| 2026-05-01 12:02 | 35.26591 | 25.62079 | 36046 ft | 420 kts | 315° |
| 2026-05-01 12:03 | 35.31179 | 25.57659 | 36048 ft | 420 kts | 315° |
| 2026-05-01 12:03 | 35.35764 | 25.53234 | 36047 ft | 420 kts | 315° |
| 2026-05-01 12:04 | 35.40359 | 25.48792 | 36054 ft | 419 kts | 315° |
| 2026-05-01 12:04 | 35.44931 | 25.44366 | 36053 ft | 419 kts | 315° |
| 2026-05-01 12:05 | 35.49487 | 25.39948 | 36052 ft | 419 kts | 315° |
| 2026-05-01 12:05 | 35.56348 | 25.33283 | 36053 ft | 419 kts | 315° |
| 2026-05-01 12:06 | 35.60914 | 25.28839 | 36057 ft | 419 kts | 314° |
| 2026-05-01 12:06 | 35.65484 | 25.24385 | 36056 ft | 419 kts | 314° |
| 2026-05-01 12:07 | 35.70050 | 25.19929 | 36053 ft | 419 kts | 314° |
| 2026-05-01 12:07 | 35.74590 | 25.15490 | 36050 ft | 419 kts | 314° |
| 2026-05-01 12:08 | 35.79157 | 25.11019 | 36053 ft | 419 kts | 314° |
| 2026-05-01 12:08 | 35.83718 | 25.06547 | 36053 ft | 419 kts | 314° |
| 2026-05-01 12:09 | 35.88274 | 25.02073 | 36053 ft | 419 kts | 314° |
| 2026-05-01 12:09 | 35.92833 | 24.97589 | 36053 ft | 419 kts | 314° |
| 2026-05-01 12:10 | 35.99664 | 24.90858 | 36056 ft | 418 kts | 314° |
| 2026-05-01 12:11 | 36.06481 | 24.84127 | 36056 ft | 418 kts | 314° |
| 2026-05-01 12:11 | 36.11018 | 24.79643 | 36058 ft | 418 kts | 314° |
| 2026-05-01 12:12 | 36.15553 | 24.75140 | 36056 ft | 418 kts | 314° |
| 2026-05-01 12:12 | 36.20054 | 24.70666 | 36061 ft | 418 kts | 314° |
| 2026-05-01 12:13 | 36.24590 | 24.66153 | 36088 ft | 418 kts | 314° |
| 2026-05-01 12:13 | 36.29122 | 24.61638 | 36065 ft | 418 kts | 314° |
| 2026-05-01 12:14 | 36.33665 | 24.57106 | 36066 ft | 419 kts | 314° |
| 2026-05-01 12:14 | 36.38210 | 24.52565 | 36066 ft | 419 kts | 314° |
| 2026-05-01 12:15 | 36.42743 | 24.48029 | 36070 ft | 419 kts | 314° |
| 2026-05-01 12:15 | 36.47269 | 24.43493 | 36074 ft | 418 kts | 314° |
| 2026-05-01 12:16 | 36.51797 | 24.38939 | 36074 ft | 418 kts | 314° |
| 2026-05-01 12:16 | 36.56331 | 24.34384 | 36087 ft | 419 kts | 313° |
| 2026-05-01 12:17 | 36.60873 | 24.29811 | 36080 ft | 420 kts | 313° |
| 2026-05-01 12:17 | 36.65387 | 24.25260 | 36086 ft | 420 kts | 313° |
| 2026-05-01 12:18 | 36.69940 | 24.20662 | 36086 ft | 420 kts | 313° |
| 2026-05-01 12:18 | 36.74469 | 24.16080 | 36086 ft | 420 kts | 313° |
| 2026-05-01 12:19 | 36.79000 | 24.11488 | 36092 ft | 420 kts | 313° |
| 2026-05-01 12:19 | 36.83536 | 24.06884 | 36112 ft | 420 kts | 313° |
| 2026-05-01 12:20 | 36.88079 | 24.02264 | 36093 ft | 422 kts | 313° |
| 2026-05-01 12:20 | 36.92641 | 23.97620 | 36096 ft | 422 kts | 313° |
| 2026-05-01 12:21 | 36.97197 | 23.92982 | 36097 ft | 422 kts | 313° |
| 2026-05-01 12:21 | 37.01717 | 23.88372 | 36102 ft | 422 kts | 313° |
| 2026-05-01 12:22 | 37.06276 | 23.83714 | 36105 ft | 422 kts | 313° |
| 2026-05-01 12:22 | 37.10826 | 23.79057 | 36150 ft | 422 kts | 313° |
| 2026-05-01 12:23 | 37.15377 | 23.74391 | 36107 ft | 423 kts | 313° |
| 2026-05-01 12:23 | 37.19947 | 23.69698 | 36116 ft | 425 kts | 313° |
| 2026-05-01 12:24 | 37.24494 | 23.65022 | 36119 ft | 425 kts | 313° |
| 2026-05-01 12:24 | 37.29063 | 23.60318 | 36121 ft | 425 kts | 313° |
| 2026-05-01 12:25 | 37.35917 | 23.53244 | 36123 ft | 424 kts | 313° |
| 2026-05-01 12:26 | 37.40481 | 23.48524 | 36136 ft | 425 kts | 313° |
| 2026-05-01 12:26 | 37.47341 | 23.41414 | 36128 ft | 426 kts | 313° |
| 2026-05-01 12:27 | 37.54220 | 23.34266 | 36136 ft | 428 kts | 313° |
| 2026-05-01 12:28 | 37.61087 | 23.27117 | 36135 ft | 428 kts | 313° |
| 2026-05-01 12:29 | 37.67967 | 23.19934 | 36166 ft | 429 kts | 313° |
| 2026-05-01 12:29 | 37.74851 | 23.12729 | 36139 ft | 428 kts | 313° |
| 2026-05-01 12:30 | 37.81728 | 23.05509 | 36145 ft | 428 kts | 313° |
| 2026-05-01 12:31 | 37.86318 | 23.00687 | 36146 ft | 428 kts | 313° |
| 2026-05-01 12:31 | 37.90894 | 22.95869 | 36150 ft | 428 kts | 313° |
| 2026-05-01 12:32 | 37.95480 | 22.91036 | 36209 ft | 429 kts | 313° |
| 2026-05-01 12:32 | 38.02346 | 22.83824 | 36157 ft | 426 kts | 313° |
| 2026-05-01 12:33 | 38.06902 | 22.79026 | 36156 ft | 426 kts | 313° |
| 2026-05-01 12:33 | 38.11429 | 22.74247 | 36152 ft | 425 kts | 313° |
| 2026-05-01 12:34 | 38.15983 | 22.69433 | 36156 ft | 425 kts | 313° |
| 2026-05-01 12:34 | 38.20529 | 22.64619 | 36156 ft | 425 kts | 313° |
| 2026-05-01 12:35 | 38.25071 | 22.59799 | 36168 ft | 425 kts | 313° |
| 2026-05-01 12:35 | 38.29623 | 22.54960 | 36161 ft | 427 kts | 313° |
| 2026-05-01 12:36 | 38.34179 | 22.50109 | 36164 ft | 427 kts | 313° |
| 2026-05-01 12:36 | 38.38704 | 22.45285 | 36167 ft | 427 kts | 313° |
| 2026-05-01 12:37 | 38.43258 | 22.40425 | 36156 ft | 426 kts | 313° |
| 2026-05-01 12:37 | 38.47797 | 22.35570 | 36165 ft | 425 kts | 313° |
| 2026-05-01 12:38 | 38.52325 | 22.30718 | 36160 ft | 426 kts | 313° |
| 2026-05-01 12:38 | 38.56865 | 22.25841 | 36166 ft | 426 kts | 313° |
| 2026-05-01 12:39 | 38.61391 | 22.20972 | 36166 ft | 426 kts | 313° |
| 2026-05-01 12:39 | 38.65923 | 22.16091 | 36154 ft | 425 kts | 313° |
| 2026-05-01 12:40 | 38.70447 | 22.11211 | 36148 ft | 425 kts | 313° |
| 2026-05-01 12:40 | 38.74946 | 22.06349 | 36157 ft | 426 kts | 313° |
| 2026-05-01 12:41 | 38.79486 | 22.01434 | 36163 ft | 427 kts | 313° |
| 2026-05-01 12:41 | 38.84033 | 21.96500 | 36156 ft | 428 kts | 313° |
| 2026-05-01 12:42 | 38.88577 | 21.91564 | 36137 ft | 429 kts | 313° |
| 2026-05-01 12:42 | 38.93148 | 21.86593 | 36146 ft | 429 kts | 313° |
| 2026-05-01 12:43 | 38.97662 | 21.81673 | 36148 ft | 429 kts | 313° |
| 2026-05-01 12:43 | 39.02208 | 21.76707 | 36140 ft | 429 kts | 313° |
| 2026-05-01 12:44 | 39.06767 | 21.71716 | 36143 ft | 431 kts | 313° |
| 2026-05-01 12:45 | 39.15942 | 21.61650 | 36152 ft | 434 kts | 313° |
| 2026-05-01 12:45 | 39.20540 | 21.56595 | 36152 ft | 433 kts | 313° |
| 2026-05-01 12:46 | 39.25099 | 21.51574 | 36141 ft | 434 kts | 313° |
| 2026-05-01 12:46 | 39.29695 | 21.46506 | 36140 ft | 434 kts | 313° |
| 2026-05-01 12:47 | 39.34292 | 21.41424 | 36161 ft | 435 kts | 313° |
| 2026-05-01 12:47 | 39.38157 | 21.37135 | 36137 ft | 439 kts | 313° |
| 2026-05-01 12:48 | 39.42768 | 21.32014 | 36137 ft | 440 kts | 313° |
| 2026-05-01 12:48 | 39.47413 | 21.26853 | 36133 ft | 440 kts | 313° |
| 2026-05-01 12:49 | 39.52055 | 21.21687 | 36128 ft | 439 kts | 313° |
| 2026-05-01 12:49 | 39.56692 | 21.16515 | 36132 ft | 440 kts | 313° |
| 2026-05-01 12:50 | 39.61324 | 21.11337 | 36126 ft | 441 kts | 314° |
| 2026-05-01 12:50 | 39.65991 | 21.06109 | 36118 ft | 445 kts | 314° |
| 2026-05-01 12:51 | 39.70684 | 21.00845 | 36092 ft | 446 kts | 314° |
| 2026-05-01 12:52 | 39.77722 | 20.92935 | 36102 ft | 445 kts | 314° |
| 2026-05-01 12:52 | 39.84723 | 20.85041 | 36101 ft | 446 kts | 314° |
| 2026-05-01 12:53 | 39.91761 | 20.77080 | 36099 ft | 449 kts | 314° |
| 2026-05-01 12:54 | 39.96491 | 20.71719 | 36081 ft | 451 kts | 314° |
| 2026-05-01 12:54 | 40.03599 | 20.63648 | 36074 ft | 451 kts | 314° |
| 2026-05-01 12:55 | 40.08661 | 20.58730 | 36063 ft | 459 kts | 325° |
| 2026-05-01 12:55 | 40.11489 | 20.56767 | 36059 ft | 461 kts | 327° |
| 2026-05-01 12:56 | 40.17252 | 20.53026 | 36068 ft | 463 kts | 329° |
| 2026-05-01 12:56 | 40.23025 | 20.49367 | 36065 ft | 464 kts | 329° |
| 2026-05-01 12:57 | 40.28834 | 20.45664 | 36062 ft | 464 kts | 329° |
| 2026-05-01 12:57 | 40.37549 | 20.40063 | 36075 ft | 466 kts | 329° |
| 2026-05-01 12:58 | 40.43374 | 20.36306 | 36068 ft | 467 kts | 329° |
| 2026-05-01 12:59 | 40.52113 | 20.30657 | 36059 ft | 466 kts | 329° |
| 2026-05-01 12:59 | 40.60846 | 20.24995 | 36083 ft | 467 kts | 329° |
| 2026-05-01 13:00 | 40.69608 | 20.19296 | 36077 ft | 469 kts | 329° |
| 2026-05-01 13:01 | 40.78347 | 20.13596 | 36073 ft | 469 kts | 329° |
| 2026-05-01 13:02 | 40.87142 | 20.07845 | 36084 ft | 469 kts | 330° |
| 2026-05-01 13:07 | 41.51613 | 19.65448 | 36107 ft | 472 kts | 332° |
| 2026-05-01 13:08 | 41.57553 | 19.61716 | 36116 ft | 472 kts | 332° |
| 2026-05-01 13:08 | 41.63491 | 19.57953 | 36116 ft | 473 kts | 332° |
| 2026-05-01 13:09 | 41.69432 | 19.54166 | 36124 ft | 473 kts | 332° |
| 2026-05-01 13:09 | 41.75339 | 19.50392 | 36142 ft | 473 kts | 332° |
| 2026-05-01 13:10 | 41.81268 | 19.46596 | 36132 ft | 473 kts | 332° |
| 2026-05-01 13:10 | 41.87204 | 19.42788 | 36141 ft | 474 kts | 332° |
| 2026-05-01 13:11 | 41.93155 | 19.38965 | 36143 ft | 474 kts | 332° |
| 2026-05-01 13:11 | 41.99118 | 19.35123 | 36146 ft | 474 kts | 333° |
| 2026-05-01 13:12 | 42.05065 | 19.31286 | 36146 ft | 475 kts | 333° |
| 2026-05-01 13:12 | 42.11032 | 19.27427 | 36149 ft | 475 kts | 333° |
| 2026-05-01 13:13 | 42.16988 | 19.23567 | 36143 ft | 475 kts | 333° |
| 2026-05-01 13:13 | 42.22952 | 19.19694 | 36156 ft | 475 kts | 333° |
| 2026-05-01 13:14 | 42.28866 | 19.15845 | 36155 ft | 475 kts | 333° |
| 2026-05-01 13:14 | 42.34827 | 19.11958 | 36148 ft | 475 kts | 333° |
| 2026-05-01 13:15 | 42.40783 | 19.08065 | 36156 ft | 475 kts | 333° |
| 2026-05-01 13:15 | 42.46761 | 19.04150 | 36158 ft | 473 kts | 334° |
| 2026-05-01 13:16 | 42.52682 | 19.00263 | 36162 ft | 473 kts | 334° |
| 2026-05-01 13:16 | 42.58598 | 18.96373 | 36156 ft | 471 kts | 334° |
| 2026-05-01 13:17 | 42.70356 | 18.88613 | 36161 ft | 473 kts | 334° |
| 2026-05-01 13:18 | 42.79208 | 18.82751 | 36168 ft | 470 kts | 334° |
| 2026-05-01 13:18 | 42.85094 | 18.78842 | 36182 ft | 471 kts | 334° |
| 2026-05-01 13:19 | 42.91002 | 18.74910 | 36187 ft | 471 kts | 335° |
| 2026-05-01 13:20 | 42.99756 | 18.69070 | 36191 ft | 468 kts | 335° |
| 2026-05-01 13:20 | 43.05667 | 18.65120 | 36193 ft | 471 kts | 335° |
| 2026-05-01 13:21 | 43.14442 | 18.59292 | 36201 ft | 467 kts | 336° |
| 2026-05-01 13:21 | 43.20294 | 18.55400 | 36206 ft | 470 kts | 336° |
| 2026-05-01 13:22 | 43.26171 | 18.51364 | 36216 ft | 471 kts | 334° |
| 2026-05-01 13:22 | 43.31875 | 18.47027 | 36213 ft | 468 kts | 332° |
| 2026-05-01 13:23 | 43.37550 | 18.42610 | 36209 ft | 470 kts | 332° |
| 2026-05-01 13:23 | 43.43283 | 18.38131 | 36213 ft | 473 kts | 332° |
| 2026-05-01 13:24 | 43.48960 | 18.33695 | 36211 ft | 471 kts | 333° |
| 2026-05-01 13:25 | 43.57523 | 18.26997 | 36226 ft | 473 kts | 333° |
| 2026-05-01 13:25 | 43.63252 | 18.22503 | 36250 ft | 474 kts | 333° |
| 2026-05-01 13:26 | 43.68974 | 18.18003 | 36256 ft | 473 kts | 333° |
| 2026-05-01 13:26 | 43.74685 | 18.13501 | 36262 ft | 473 kts | 333° |
| 2026-05-01 13:27 | 43.80415 | 18.08979 | 36260 ft | 474 kts | 333° |
| 2026-05-01 13:27 | 43.88968 | 18.02207 | 36265 ft | 473 kts | 333° |
| 2026-05-01 13:28 | 43.97523 | 17.95406 | 36269 ft | 473 kts | 333° |
| 2026-05-01 13:29 | 44.08041 | 17.87017 | 36286 ft | 474 kts | 333° |
| 2026-05-01 13:31 | 44.25125 | 17.73314 | 36302 ft | 472 kts | 334° |
| 2026-05-01 13:32 | 44.39310 | 17.61869 | 36311 ft | 471 kts | 334° |
| 2026-05-01 13:33 | 44.53477 | 17.50373 | 36320 ft | 470 kts | 335° |
| 2026-05-01 13:34 | 44.64791 | 17.41143 | 36328 ft | 470 kts | 335° |
| 2026-05-01 13:35 | 44.73236 | 17.34228 | 36339 ft | 470 kts | 335° |
| 2026-05-01 13:36 | 44.81696 | 17.27277 | 36341 ft | 470 kts | 335° |
| 2026-05-01 13:36 | 44.90146 | 17.20308 | 36346 ft | 469 kts | 335° |
| 2026-05-01 13:37 | 44.95784 | 17.15646 | 36322 ft | 469 kts | 335° |
| 2026-05-01 13:37 | 45.01420 | 17.10975 | 36335 ft | 469 kts | 335° |
| 2026-05-01 13:38 | 45.09867 | 17.03953 | 36332 ft | 469 kts | 336° |
| 2026-05-01 13:39 | 45.15490 | 16.99265 | 36337 ft | 469 kts | 336° |
| 2026-05-01 13:39 | 45.21118 | 16.94564 | 36334 ft | 469 kts | 336° |
| 2026-05-01 13:40 | 45.26738 | 16.89857 | 36339 ft | 469 kts | 336° |
| 2026-05-01 13:40 | 45.32359 | 16.85139 | 36295 ft | 469 kts | 336° |
| 2026-05-01 13:41 | 45.37963 | 16.80422 | 36336 ft | 468 kts | 336° |
| 2026-05-01 13:41 | 45.43557 | 16.75705 | 36336 ft | 467 kts | 336° |
| 2026-05-01 13:42 | 45.49109 | 16.71013 | 36335 ft | 467 kts | 336° |
| 2026-05-01 13:42 | 45.54693 | 16.66282 | 36338 ft | 467 kts | 336° |
| 2026-05-01 13:43 | 45.60286 | 16.61533 | 36306 ft | 467 kts | 336° |
| 2026-05-01 13:43 | 45.65862 | 16.56785 | 36338 ft | 466 kts | 336° |
| 2026-05-01 13:44 | 45.71428 | 16.52036 | 36338 ft | 465 kts | 336° |
| 2026-05-01 13:44 | 45.76988 | 16.47281 | 36342 ft | 465 kts | 336° |
| 2026-05-01 13:45 | 45.82551 | 16.42512 | 36340 ft | 465 kts | 335° |
| 2026-05-01 13:45 | 45.88084 | 16.37757 | 36343 ft | 464 kts | 335° |
| 2026-05-01 13:46 | 45.93621 | 16.32989 | 36341 ft | 464 kts | 335° |
| 2026-05-01 13:46 | 45.99122 | 16.28240 | 36343 ft | 464 kts | 335° |
| 2026-05-01 13:47 | 46.04654 | 16.23453 | 36334 ft | 463 kts | 335° |
| 2026-05-01 13:47 | 46.10175 | 16.18663 | 36354 ft | 463 kts | 335° |
| 2026-05-01 13:48 | 46.15699 | 16.13861 | 36357 ft | 463 kts | 335° |
| 2026-05-01 13:48 | 46.21207 | 16.09061 | 36346 ft | 463 kts | 335° |
| 2026-05-01 13:49 | 46.26722 | 16.04243 | 36343 ft | 463 kts | 335° |
| 2026-05-01 13:49 | 46.32226 | 15.99426 | 36347 ft | 462 kts | 335° |
| 2026-05-01 13:50 | 46.37698 | 15.94624 | 36347 ft | 462 kts | 335° |
| 2026-05-01 13:50 | 46.43194 | 15.89787 | 36346 ft | 462 kts | 335° |
| 2026-05-01 13:51 | 46.48688 | 15.84941 | 36341 ft | 462 kts | 334° |
| 2026-05-01 13:51 | 46.54183 | 15.80084 | 36347 ft | 463 kts | 334° |
| 2026-05-01 13:52 | 46.59673 | 15.75218 | 36348 ft | 463 kts | 334° |
| 2026-05-01 13:52 | 46.65181 | 15.70324 | 36348 ft | 463 kts | 334° |
| 2026-05-01 13:53 | 46.70548 | 15.65096 | 36351 ft | 470 kts | 326° |
| 2026-05-01 13:53 | 46.77393 | 15.54634 | 36352 ft | 478 kts | 317° |
| 2026-05-01 13:54 | 46.81734 | 15.47355 | 36349 ft | 478 kts | 317° |
| 2026-05-01 13:54 | 46.86091 | 15.40034 | 36348 ft | 478 kts | 317° |
| 2026-05-01 13:55 | 46.90461 | 15.32722 | 36349 ft | 478 kts | 317° |
| 2026-05-01 13:55 | 46.94841 | 15.25395 | 36360 ft | 478 kts | 317° |
| 2026-05-01 13:56 | 46.99214 | 15.18063 | 36360 ft | 478 kts | 317° |
| 2026-05-01 13:56 | 47.03578 | 15.10721 | 36361 ft | 478 kts | 317° |
| 2026-05-01 13:57 | 47.07200 | 15.04610 | 36340 ft | 478 kts | 316° |
| 2026-05-01 13:57 | 47.12261 | 14.96049 | 36331 ft | 477 kts | 316° |
| 2026-05-01 13:58 | 47.16611 | 14.88674 | 36345 ft | 477 kts | 316° |
| 2026-05-01 13:58 | 47.20959 | 14.81281 | 36347 ft | 478 kts | 316° |
| 2026-05-01 13:59 | 47.25300 | 14.73876 | 36347 ft | 478 kts | 316° |
| 2026-05-01 13:59 | 47.29642 | 14.66449 | 36341 ft | 478 kts | 316° |
| 2026-05-01 14:00 | 47.33971 | 14.59026 | 36347 ft | 478 kts | 315° |
| 2026-05-01 14:00 | 47.38301 | 14.51581 | 36348 ft | 479 kts | 315° |
| 2026-05-01 14:01 | 47.42633 | 14.44108 | 36354 ft | 479 kts | 315° |
| 2026-05-01 14:01 | 47.46954 | 14.36638 | 36349 ft | 478 kts | 315° |
| 2026-05-01 14:02 | 47.51285 | 14.29131 | 36350 ft | 479 kts | 315° |
| 2026-05-01 14:02 | 47.55598 | 14.21632 | 36354 ft | 479 kts | 315° |
| 2026-05-01 14:03 | 47.59917 | 14.14099 | 36351 ft | 479 kts | 315° |
| 2026-05-01 14:03 | 47.64223 | 14.06569 | 36358 ft | 479 kts | 315° |
| 2026-05-01 14:04 | 47.68534 | 13.99010 | 36351 ft | 479 kts | 315° |
| 2026-05-01 14:04 | 47.72106 | 13.92733 | 36351 ft | 480 kts | 314° |
| 2026-05-01 14:05 | 47.77134 | 13.83868 | 36350 ft | 479 kts | 314° |
| 2026-05-01 14:05 | 47.81426 | 13.76276 | 36350 ft | 479 kts | 314° |
| 2026-05-01 14:06 | 47.85711 | 13.68679 | 36352 ft | 480 kts | 314° |
| 2026-05-01 14:06 | 47.89976 | 13.61100 | 36359 ft | 480 kts | 314° |
| 2026-05-01 14:07 | 47.94252 | 13.53474 | 36364 ft | 480 kts | 314° |
| 2026-05-01 14:08 | 48.00665 | 13.41994 | 36345 ft | 480 kts | 314° |
| 2026-05-01 14:08 | 48.04938 | 13.34319 | 36350 ft | 480 kts | 313° |
| 2026-05-01 14:09 | 48.09199 | 13.26646 | 36357 ft | 480 kts | 313° |
| 2026-05-01 14:09 | 48.13463 | 13.18945 | 36355 ft | 480 kts | 313° |
| 2026-05-01 14:10 | 48.17722 | 13.11231 | 36357 ft | 480 kts | 313° |
| 2026-05-01 14:10 | 48.21963 | 13.03507 | 36356 ft | 481 kts | 312° |
| 2026-05-01 14:11 | 48.25742 | 12.95188 | 36362 ft | 483 kts | 306° |
| 2026-05-01 14:11 | 48.31141 | 12.82446 | 36357 ft | 484 kts | 305° |
| 2026-05-01 14:12 | 48.34754 | 12.73837 | 36357 ft | 484 kts | 305° |
| 2026-05-01 14:12 | 48.38336 | 12.65290 | 36358 ft | 484 kts | 305° |
| 2026-05-01 14:13 | 48.41318 | 12.58160 | 36362 ft | 484 kts | 305° |
| 2026-05-01 14:13 | 48.45498 | 12.48137 | 36359 ft | 484 kts | 305° |
| 2026-05-01 14:14 | 48.49067 | 12.39551 | 36360 ft | 484 kts | 305° |
| 2026-05-01 14:14 | 48.52611 | 12.30997 | 36366 ft | 484 kts | 305° |
| 2026-05-01 14:15 | 48.56169 | 12.22380 | 36365 ft | 484 kts | 305° |
| 2026-05-01 14:15 | 48.59721 | 12.13751 | 36359 ft | 483 kts | 304° |
| 2026-05-01 14:16 | 48.63256 | 12.05137 | 36359 ft | 483 kts | 304° |
| 2026-05-01 14:16 | 48.66217 | 11.97898 | 36358 ft | 483 kts | 304° |
| 2026-05-01 14:17 | 48.69729 | 11.89289 | 36353 ft | 483 kts | 304° |
| 2026-05-01 14:17 | 48.73248 | 11.80632 | 36342 ft | 482 kts | 304° |
| 2026-05-01 14:18 | 48.76750 | 11.71991 | 36347 ft | 482 kts | 304° |
| 2026-05-01 14:18 | 48.79831 | 11.62956 | 36351 ft | 485 kts | 292° |
| 2026-05-01 14:19 | 48.81350 | 11.53008 | 36343 ft | 489 kts | 282° |
| 2026-05-01 14:19 | 48.82423 | 11.42738 | 36334 ft | 490 kts | 281° |
| 2026-05-01 14:20 | 48.84297 | 11.27568 | 36353 ft | 485 kts | 291° |
| 2026-05-01 14:21 | 48.87374 | 11.18660 | 36353 ft | 478 kts | 309° |
| 2026-05-01 14:21 | 48.91961 | 11.11397 | 36333 ft | 476 kts | 319° |
| 2026-05-01 14:22 | 48.96842 | 11.04600 | 36026 ft | 474 kts | 320° |
| 2026-05-01 14:22 | 48.99286 | 11.01229 | 35205 ft | 477 kts | 320° |
| 2026-05-01 14:22 | 49.01753 | 10.97810 | 34392 ft | 479 kts | 319° |
| 2026-05-01 14:22 | 49.04210 | 10.94381 | 33567 ft | 480 kts | 319° |
| 2026-05-01 14:23 | 49.06664 | 10.90939 | 32798 ft | 480 kts | 319° |
| 2026-05-01 14:23 | 49.09125 | 10.87478 | 32013 ft | 480 kts | 319° |
| 2026-05-01 14:23 | 49.11576 | 10.84025 | 31221 ft | 481 kts | 319° |
| 2026-05-01 14:23 | 49.14038 | 10.80540 | 30435 ft | 482 kts | 319° |
| 2026-05-01 14:24 | 49.16493 | 10.77054 | 29505 ft | 483 kts | 319° |
| 2026-05-01 14:24 | 49.18953 | 10.73558 | 28807 ft | 479 kts | 319° |
| 2026-05-01 14:24 | 49.21356 | 10.70078 | 28222 ft | 474 kts | 317° |
| 2026-05-01 14:24 | 49.23643 | 10.66457 | 27606 ft | 470 kts | 315° |
| 2026-05-01 14:25 | 49.25879 | 10.62859 | 27061 ft | 467 kts | 315° |
| 2026-05-01 14:25 | 49.28158 | 10.59219 | 26427 ft | 477 kts | 315° |
| 2026-05-01 14:25 | 49.30466 | 10.55550 | 25908 ft | 479 kts | 316° |
| 2026-05-01 14:25 | 49.32779 | 10.51880 | 25534 ft | 479 kts | 316° |
| 2026-05-01 14:26 | 49.35081 | 10.48209 | 24951 ft | 475 kts | 315° |
| 2026-05-01 14:26 | 49.39043 | 10.40190 | 23916 ft | 465 kts | 307° |
| 2026-05-01 14:26 | 49.40875 | 10.36163 | 23417 ft | 457 kts | 307° |
| 2026-05-01 14:27 | 49.42678 | 10.32199 | 22935 ft | 450 kts | 307° |
| 2026-05-01 14:27 | 49.44461 | 10.28277 | 22571 ft | 445 kts | 307° |
| 2026-05-01 14:27 | 49.46241 | 10.24361 | 22204 ft | 447 kts | 307° |
| 2026-05-01 14:28 | 49.49792 | 10.16539 | 21440 ft | 444 kts | 306° |
| 2026-05-01 14:28 | 49.51557 | 10.12641 | 21101 ft | 442 kts | 306° |
| 2026-05-01 14:28 | 49.53309 | 10.08765 | 20730 ft | 443 kts | 306° |
| 2026-05-01 14:28 | 49.55084 | 10.04827 | 20370 ft | 450 kts | 306° |
| 2026-05-01 14:29 | 49.56873 | 10.00858 | 20102 ft | 453 kts | 306° |
| 2026-05-01 14:29 | 49.58652 | 9.96911 | 19721 ft | 453 kts | 306° |
| 2026-05-01 14:30 | 49.64006 | 9.84979 | 18489 ft | 447 kts | 305° |
| 2026-05-01 14:30 | 49.65774 | 9.81028 | 18090 ft | 445 kts | 305° |
| 2026-05-01 14:30 | 49.67524 | 9.77107 | 17721 ft | 444 kts | 305° |
| 2026-05-01 14:31 | 49.71025 | 9.69249 | 16994 ft | 439 kts | 305° |
| 2026-05-01 14:31 | 49.72755 | 9.65360 | 16624 ft | 437 kts | 305° |
| 2026-05-01 14:31 | 49.74470 | 9.61503 | 16262 ft | 436 kts | 305° |
| 2026-05-01 14:31 | 49.76193 | 9.57641 | 15886 ft | 435 kts | 305° |
| 2026-05-01 14:32 | 49.77898 | 9.53788 | 15534 ft | 433 kts | 304° |
| 2026-05-01 14:32 | 49.79587 | 9.49957 | 15186 ft | 432 kts | 304° |
| 2026-05-01 14:32 | 49.81292 | 9.46095 | 14836 ft | 432 kts | 304° |
| 2026-05-01 14:32 | 49.82967 | 9.42295 | 14480 ft | 424 kts | 304° |
| 2026-05-01 14:33 | 49.84611 | 9.38546 | 14119 ft | 422 kts | 304° |
| 2026-05-01 14:33 | 49.86134 | 9.34644 | 13741 ft | 423 kts | 295° |
| 2026-05-01 14:33 | 49.87131 | 9.30377 | 13416 ft | 415 kts | 286° |
| 2026-05-01 14:33 | 49.87936 | 9.26131 | 13066 ft | 409 kts | 285° |
| 2026-05-01 14:34 | 49.88728 | 9.21904 | 12728 ft | 406 kts | 285° |
| 2026-05-01 14:34 | 49.89521 | 9.17704 | 12390 ft | 404 kts | 285° |
| 2026-05-01 14:34 | 49.90309 | 9.13538 | 12059 ft | 402 kts | 285° |
| 2026-05-01 14:34 | 49.91087 | 9.09430 | 11728 ft | 400 kts | 285° |
| 2026-05-01 14:35 | 49.91879 | 9.05256 | 11395 ft | 397 kts | 285° |
| 2026-05-01 14:35 | 49.92644 | 9.01228 | 11169 ft | 395 kts | 285° |
| 2026-05-01 14:35 | 49.93426 | 8.97131 | 11039 ft | 388 kts | 285° |
| 2026-05-01 14:35 | 49.94162 | 8.93277 | 10913 ft | 356 kts | 285° |
| 2026-05-01 14:36 | 49.94838 | 8.89739 | 10784 ft | 328 kts | 285° |
| 2026-05-01 14:36 | 49.95471 | 8.86412 | 10640 ft | 314 kts | 284° |
| 2026-05-01 14:36 | 49.96078 | 8.83212 | 10508 ft | 302 kts | 284° |
| 2026-05-01 14:36 | 49.96659 | 8.80137 | 10379 ft | 300 kts | 284° |
| 2026-05-01 14:37 | 49.97245 | 8.77028 | 10255 ft | 301 kts | 284° |
| 2026-05-01 14:37 | 49.97811 | 8.73887 | 10124 ft | 300 kts | 281° |
| 2026-05-01 14:37 | 49.97911 | 8.70712 | 9999 ft | 293 kts | 257° |
| 2026-05-01 14:37 | 49.97331 | 8.67697 | 9875 ft | 290 kts | 246° |
| 2026-05-01 14:38 | 49.96611 | 8.64765 | 9766 ft | 290 kts | 246° |
| 2026-05-01 14:38 | 49.95894 | 8.61837 | 9656 ft | 290 kts | 246° |
| 2026-05-01 14:38 | 49.95183 | 8.58916 | 9545 ft | 289 kts | 247° |
| 2026-05-01 14:38 | 49.94482 | 8.56020 | 9424 ft | 288 kts | 246° |
| 2026-05-01 14:39 | 49.93776 | 8.53104 | 9318 ft | 288 kts | 246° |
| 2026-05-01 14:39 | 49.93073 | 8.50197 | 9199 ft | 288 kts | 246° |
| 2026-05-01 14:39 | 49.92371 | 8.47287 | 9072 ft | 287 kts | 247° |
| 2026-05-01 14:39 | 49.91673 | 8.44383 | 8970 ft | 287 kts | 246° |
| 2026-05-01 14:40 | 49.90981 | 8.41523 | 8850 ft | 286 kts | 247° |
| 2026-05-01 14:40 | 49.90272 | 8.38599 | 8753 ft | 286 kts | 246° |
| 2026-05-01 14:40 | 49.89585 | 8.35757 | 8631 ft | 285 kts | 246° |
| 2026-05-01 14:40 | 49.88886 | 8.32870 | 8516 ft | 285 kts | 246° |
| 2026-05-01 14:41 | 49.88190 | 8.30004 | 8410 ft | 284 kts | 246° |
| 2026-05-01 14:41 | 49.87496 | 8.27142 | 8289 ft | 283 kts | 247° |
| 2026-05-01 14:41 | 49.86801 | 8.24285 | 8171 ft | 283 kts | 246° |
| 2026-05-01 14:41 | 49.86106 | 8.21435 | 8070 ft | 282 kts | 246° |
| 2026-05-01 14:42 | 49.85415 | 8.18599 | 7961 ft | 281 kts | 246° |
| 2026-05-01 14:42 | 49.84725 | 8.15765 | 7754 ft | 280 kts | 246° |
| 2026-05-01 14:42 | 49.84036 | 8.12944 | 7547 ft | 279 kts | 246° |
| 2026-05-01 14:42 | 49.83356 | 8.10161 | 7448 ft | 279 kts | 246° |
| 2026-05-01 14:43 | 49.82667 | 8.07330 | 7388 ft | 278 kts | 246° |
| 2026-05-01 14:43 | 49.81978 | 8.04527 | 7339 ft | 278 kts | 246° |
| 2026-05-01 14:43 | 49.81292 | 8.01735 | 7266 ft | 278 kts | 246° |
| 2026-05-01 14:43 | 49.80609 | 7.98944 | 7152 ft | 277 kts | 246° |
| 2026-05-01 14:44 | 49.79923 | 7.96151 | 7062 ft | 277 kts | 246° |
| 2026-05-01 14:44 | 49.79486 | 7.90271 | 7053 ft | 286 kts | 281° |
| 2026-05-01 14:44 | 49.80350 | 7.87504 | 7041 ft | 289 kts | 307° |
| 2026-05-01 14:45 | 49.81913 | 7.85566 | 7039 ft | 291 kts | 334° |
| 2026-05-01 14:45 | 49.85636 | 7.86095 | 6973 ft | 282 kts | 45° |
| 2026-05-01 14:45 | 49.86837 | 7.88537 | 6967 ft | 278 kts | 66° |
| 2026-05-01 14:46 | 49.87627 | 7.91279 | 6962 ft | 278 kts | 71° |
| 2026-05-01 14:46 | 49.89254 | 7.96681 | 6967 ft | 264 kts | 67° |
| 2026-05-01 14:46 | 49.89990 | 7.99191 | 6975 ft | 247 kts | 71° |
| 2026-05-01 14:47 | 49.90599 | 8.01596 | 6980 ft | 232 kts | 73° |
| 2026-05-01 14:47 | 49.91156 | 8.03922 | 6975 ft | 229 kts | 74° |
| 2026-05-01 14:47 | 49.91651 | 8.06260 | 6797 ft | 228 kts | 77° |
| 2026-05-01 14:48 | 49.92709 | 8.10919 | 6123 ft | 230 kts | 73° |
| 2026-05-01 14:48 | 49.93270 | 8.13268 | 5744 ft | 234 kts | 74° |
| 2026-05-01 14:48 | 49.94396 | 8.18086 | 5030 ft | 240 kts | 74° |
| 2026-05-01 14:49 | 49.95544 | 8.22959 | 4366 ft | 239 kts | 72° |
| 2026-05-01 14:49 | 49.96600 | 8.27429 | 3837 ft | 198 kts | 73° |
| 2026-05-01 14:50 | 49.97175 | 8.29877 | 3554 ft | 170 kts | 73° |
| 2026-05-01 14:50 | 49.98181 | 8.34134 | 2939 ft | 143 kts | 73° |
| 2026-05-01 14:51 | 49.98522 | 8.35580 | 2773 ft | 143 kts | 73° |
| 2026-05-01 14:51 | 49.99195 | 8.38430 | 2404 ft | 138 kts | 75° |
| 2026-05-01 14:52 | 49.99857 | 8.41209 | 2019 ft | 134 kts | 75° |
| 2026-05-01 14:52 | 50.00178 | 8.42576 | 1847 ft | 135 kts | 74° |
| 2026-05-01 14:52 | 50.00830 | 8.45324 | 1479 ft | 136 kts | 74° |
| 2026-05-01 14:53 | 50.01159 | 8.46708 | 1306 ft | 137 kts | 74° |
| 2026-05-01 14:53 | 50.01485 | 8.48077 | 1115 ft | 135 kts | 73° |
| 2026-05-01 14:53 | 50.01807 | 8.49445 | 938 ft | 135 kts | 73° |
| 2026-05-01 14:53 | 50.02130 | 8.50804 | 743 ft | 133 kts | 75° |
| 2026-05-01 14:54 | 50.02461 | 8.52185 | 556 ft | 137 kts | 74° |
| 2026-05-01 14:54 | 50.02787 | 8.53550 | 366 ft | 132 kts | 75° |
| 2026-05-01 14:54 | 50.03051 | 8.54713 | 359 ft | 89 kts | 65° |
| 2026-05-01 14:54 | 50.03253 | 8.55509 | 362 ft | 71 kts | 70° |
| 2026-05-01 14:55 | 50.03376 | 8.56021 | 356 ft | 43 kts | 69° |
| 2026-05-01 14:55 | 50.03493 | 8.56314 | 360 ft | 27 kts | 42° |
| 2026-05-01 14:55 | 50.03617 | 8.56476 | 361 ft | 18 kts | 41° |
| 2026-05-01 14:55 | 50.03714 | 8.56601 | 361 ft | 18 kts | 39° |
| 2026-05-01 14:56 | 50.03793 | 8.56735 | 361 ft | 15 kts | 67° |
| 2026-05-01 14:56 | 50.03825 | 8.56860 | 359 ft | 12 kts | 69° |
| 2026-05-01 14:56 | 50.03847 | 8.56956 | 354 ft | 9 kts | 71° |
| 2026-05-01 14:56 | 50.03865 | 8.57035 | 359 ft | 7 kts | 69° |
| 2026-05-01 14:57 | 50.03884 | 8.57116 | 361 ft | 9 kts | 70° |
| 2026-05-01 14:57 | 50.03929 | 8.57298 | 361 ft | 9 kts | 69° |
| 2026-05-01 14:57 | 50.03952 | 8.57393 | 354 ft | 9 kts | 69° |
| 2026-05-01 14:58 | 50.03977 | 8.57497 | 357 ft | 11 kts | 70° |
| 2026-05-01 14:58 | 50.04004 | 8.57614 | 359 ft | 12 kts | 69° |
| 2026-05-01 14:58 | 50.04036 | 8.57747 | 360 ft | 14 kts | 70° |
| 2026-05-01 14:58 | 50.04071 | 8.57895 | 360 ft | 15 kts | 69° |
| 2026-05-01 14:59 | 50.04101 | 8.58018 | 358 ft | 12 kts | 70° |
| 2026-05-01 14:59 | 50.04138 | 8.58123 | 361 ft | 8 kts | 44° |
| 2026-05-01 14:59 | 50.04182 | 8.58165 | 359 ft | 8 kts | 27° |
| 2026-05-01 14:59 | 50.04216 | 8.58190 | 361 ft | 0 kts | 25° |
| 2026-05-01 15:00 | 50.04220 | 8.58193 | 352 ft | 6 kts | 24° |
| 2026-05-01 15:00 | 50.04318 | 8.58185 | 359 ft | 16 kts | 338° |
| 2026-05-01 15:01 | 50.04427 | 8.58123 | 359 ft | 17 kts | 341° |
| 2026-05-01 15:01 | 50.04585 | 8.58032 | 361 ft | 19 kts | 339° |
| 2026-05-01 15:01 | 50.04704 | 8.57963 | 361 ft | 18 kts | 339° |
| 2026-05-01 15:01 | 50.04753 | 8.57936 | 360 ft | 8 kts | 351° |
| 2026-05-01 15:02 | 50.04811 | 8.57950 | 360 ft | 7 kts | 13° |
| 2026-05-01 15:02 | 50.04842 | 8.57959 | 358 ft | 6 kts | 10° |
| 2026-05-01 15:02 | 50.04872 | 8.57970 | 360 ft | 0 kts | 12° |